createdAt,value
2022-07-31T00:02:03.984Z,0
2022-07-31T00:07:08.294Z,0
2022-07-31T00:12:10.395Z,0
2022-07-31T00:17:14.580Z,0
2022-07-31T00:22:18.724Z,0
2022-07-31T00:27:22.904Z,0
2022-07-31T00:32:27.051Z,0
2022-07-31T00:37:31.211Z,0
2022-07-31T00:42:35.353Z,0
2022-07-31T00:47:39.527Z,0
2022-07-31T00:52:45.682Z,0
2022-07-31T00:57:47.860Z,0
2022-07-31T01:02:51.996Z,0
2022-07-31T01:07:56.185Z,0
2022-07-31T01:13:00.294Z,0
2022-07-31T01:18:04.486Z,0
2022-07-31T01:23:08.631Z,0
2022-07-31T01:28:12.827Z,0
2022-07-31T01:33:16.946Z,0
2022-07-31T01:38:21.085Z,0
2022-07-31T01:43:25.413Z,0
2022-07-31T01:48:29.440Z,0
2022-07-31T01:53:33.602Z,0
2022-07-31T01:58:35.854Z,0
2022-07-31T02:03:43.676Z,0
2022-07-31T02:08:42.288Z,0
2022-07-31T02:13:46.607Z,0
2022-07-31T02:18:48.685Z,0
2022-07-31T02:23:53.178Z,0
2022-07-31T02:34:01.199Z,0
2022-07-31T02:39:05.377Z,0
2022-07-31T02:44:09.526Z,0
2022-07-31T02:49:13.721Z,0
2022-07-31T02:54:17.801Z,0
2022-07-31T02:59:22.006Z,0
2022-07-31T03:04:26.134Z,0
2022-07-31T03:09:30.335Z,0
2022-07-31T03:14:34.457Z,0
2022-07-31T03:19:39.207Z,0
2022-07-31T03:29:47.100Z,4
2022-07-31T03:34:49.269Z,9
2022-07-31T03:40:00.417Z,16
2022-07-31T03:45:11.549Z,30
2022-07-31T03:50:22.749Z,53
2022-07-31T03:55:33.994Z,100
2022-07-31T04:00:45.069Z,155
2022-07-31T04:05:54.324Z,220
2022-07-31T04:10:58.488Z,317
2022-07-31T04:16:02.678Z,464
2022-07-31T04:21:06.810Z,653
2022-07-31T04:26:10.943Z,883
2022-07-31T04:31:15.133Z,1121
2022-07-31T04:36:29.604Z,1189
2022-07-31T04:41:23.453Z,1170
2022-07-31T04:46:27.619Z,1169
2022-07-31T04:51:31.752Z,967
2022-07-31T04:56:35.954Z,983
2022-07-31T05:01:40.180Z,1066
2022-07-31T05:06:44.222Z,1198
2022-07-31T05:11:48.412Z,1293
2022-07-31T05:16:52.538Z,1299
2022-07-31T05:22:01.772Z,1733
2022-07-31T05:27:00.900Z,2260
2022-07-31T05:32:05.029Z,2354
2022-07-31T05:37:09.190Z,1871
2022-07-31T05:42:13.364Z,1427
2022-07-31T05:47:17.533Z,1471
2022-07-31T05:52:19.789Z,1770
2022-07-31T05:57:33.118Z,2478
2022-07-31T06:02:28.117Z,3217
2022-07-31T06:07:32.278Z,2833
2022-07-31T06:12:36.402Z,2714
2022-07-31T06:17:44.366Z,3463
2022-07-31T06:22:44.758Z,3033
2022-07-31T06:27:52.023Z,2888
2022-07-31T06:32:53.051Z,2525
2022-07-31T06:37:57.229Z,2593
2022-07-31T06:43:06.346Z,4660
2022-07-31T06:48:05.547Z,6902
2022-07-31T06:53:09.695Z,7179
2022-07-31T06:58:13.859Z,6694
2022-07-31T07:03:17.990Z,6041
2022-07-31T07:08:22.186Z,5214
2022-07-31T07:13:26.310Z,4311
2022-07-31T07:18:30.505Z,5870
2022-07-31T07:23:34.658Z,7158
2022-07-31T07:28:38.811Z,8226
2022-07-31T07:33:43.210Z,7465
2022-07-31T07:38:45.215Z,6839
2022-07-31T07:43:51.661Z,5917
2022-07-31T07:48:51.829Z,6796
2022-07-31T07:53:55.810Z,7735
2022-07-31T07:58:59.992Z,8030
2022-07-31T08:04:04.134Z,9228
2022-07-31T08:09:08.301Z,9980
2022-07-31T08:14:15.294Z,9350
2022-07-31T08:19:16.646Z,9675
2022-07-31T08:24:20.789Z,10104
2022-07-31T08:29:28.814Z,8419
2022-07-31T08:34:31.449Z,9803
2022-07-31T08:39:33.240Z,11221
2022-07-31T08:44:37.416Z,8862
2022-07-31T08:49:41.575Z,7355
2022-07-31T08:54:46.033Z,7957
2022-07-31T08:59:49.864Z,7333
2022-07-31T09:04:54.150Z,7366
2022-07-31T09:09:58.185Z,7200
2022-07-31T09:15:02.394Z,8851
2022-07-31T09:20:06.528Z,8917
2022-07-31T09:25:10.671Z,9839
2022-07-31T09:30:14.920Z,10424
2022-07-31T09:35:17.120Z,9796
2022-07-31T09:40:21.476Z,8415
2022-07-31T09:45:23.525Z,8704
2022-07-31T09:50:27.693Z,11011
2022-07-31T09:55:31.854Z,10395
2022-07-31T10:00:36.051Z,10441
2022-07-31T10:05:40.192Z,11585
2022-07-31T10:10:44.342Z,11161
2022-07-31T10:15:48.490Z,11596
2022-07-31T10:20:52.662Z,10603
2022-07-31T10:25:56.784Z,11894
2022-07-31T10:31:01.008Z,11560
2022-07-31T10:36:05.097Z,13805
2022-07-31T10:41:09.467Z,13440
2022-07-31T10:46:13.493Z,12821
2022-07-31T10:51:17.728Z,12872
2022-07-31T10:56:21.797Z,13764
2022-07-31T11:01:26.000Z,11713
2022-07-31T11:06:30.095Z,10703
2022-07-31T11:11:34.251Z,11231
2022-07-31T11:16:38.398Z,11041
2022-07-31T11:21:42.935Z,14963
2022-07-31T11:26:46.691Z,12914
2022-07-31T11:31:48.995Z,10492
2022-07-31T11:36:53.231Z,12512
2022-07-31T11:41:55.424Z,12154
2022-07-31T11:46:59.560Z,9216
2022-07-31T11:52:03.741Z,10151
2022-07-31T11:57:08.030Z,10279
2022-07-31T12:02:12.035Z,12621
2022-07-31T12:07:16.204Z,8279
2022-07-31T12:12:20.377Z,6613
2022-07-31T12:17:24.527Z,7652
2022-07-31T12:22:28.673Z,7584
2022-07-31T12:27:32.822Z,6020
2022-07-31T12:32:36.992Z,7975
2022-07-31T12:37:41.143Z,11927
2022-07-31T12:42:45.355Z,14631
2022-07-31T12:47:51.138Z,14364
2022-07-31T12:52:53.653Z,14596
2022-07-31T12:57:57.765Z,14588
2022-07-31T13:03:01.988Z,13682
2022-07-31T13:08:06.084Z,12910
2022-07-31T13:13:10.274Z,14336
2022-07-31T13:18:14.430Z,11510
2022-07-31T13:23:18.586Z,14726
2022-07-31T13:28:20.877Z,9982
2022-07-31T13:33:25.013Z,5480
2022-07-31T13:38:27.298Z,5322
2022-07-31T13:43:31.982Z,10557
2022-07-31T13:48:33.727Z,9749
2022-07-31T13:53:37.873Z,6058
2022-07-31T13:58:42.033Z,12492
2022-07-31T14:03:46.211Z,9701
2022-07-31T14:08:50.756Z,9722
2022-07-31T14:13:54.520Z,14616
2022-07-31T14:18:58.681Z,10117
2022-07-31T14:24:02.827Z,9140
2022-07-31T14:29:07.274Z,10127
2022-07-31T14:34:11.161Z,6021
2022-07-31T14:39:15.293Z,8640
2022-07-31T14:44:21.321Z,13913
2022-07-31T14:49:23.672Z,12321
2022-07-31T14:54:27.777Z,8441
2022-07-31T14:59:32.306Z,5250
2022-07-31T15:04:36.108Z,4139
2022-07-31T15:09:40.284Z,6419
2022-07-31T15:14:44.516Z,12664
2022-07-31T15:19:46.707Z,34882
2022-07-31T15:24:51.045Z,9423
2022-07-31T15:30:03.693Z,5695
2022-07-31T15:34:57.262Z,21371
2022-07-31T15:40:03.718Z,3313
2022-07-31T15:45:03.712Z,3146
2022-07-31T15:50:07.942Z,2137
2022-07-31T15:55:12.244Z,2798
2022-07-31T16:00:16.343Z,2097
2022-07-31T16:05:20.326Z,1530
2022-07-31T16:10:24.494Z,8640
2022-07-31T16:15:28.662Z,15478
2022-07-31T16:20:32.787Z,9025
2022-07-31T16:25:36.980Z,6651
2022-07-31T16:30:41.128Z,8772
2022-07-31T16:35:45.316Z,7688
2022-07-31T16:40:53.274Z,5036
2022-07-31T16:45:53.631Z,5376
2022-07-31T16:50:57.784Z,5331
2022-07-31T16:56:02.233Z,3720
2022-07-31T17:01:06.345Z,3785
2022-07-31T17:06:10.217Z,3875
2022-07-31T17:11:14.403Z,3531
2022-07-31T17:16:18.531Z,3778
2022-07-31T17:21:22.967Z,5247
2022-07-31T17:26:26.860Z,2022
2022-07-31T17:31:29.156Z,980
2022-07-31T17:36:33.302Z,331
2022-07-31T17:41:37.477Z,460
2022-07-31T17:46:48.149Z,237
2022-07-31T17:51:58.775Z,785
2022-07-31T17:56:52.092Z,1619
2022-07-31T18:01:54.114Z,1004
2022-07-31T18:06:58.282Z,1399
2022-07-31T18:12:02.792Z,2480
2022-07-31T18:17:06.586Z,1965
2022-07-31T18:22:10.709Z,306
2022-07-31T18:32:19.038Z,636
2022-07-31T18:37:23.216Z,322
2022-07-31T18:42:27.379Z,149
2022-07-31T18:47:31.520Z,196
2022-07-31T18:52:35.704Z,557
2022-07-31T18:57:39.858Z,856
2022-07-31T19:02:44.018Z,457
2022-07-31T19:07:48.924Z,290
2022-07-31T19:12:52.317Z,75
2022-07-31T19:18:01.813Z,124
2022-07-31T19:22:58.743Z,46
2022-07-31T19:28:02.924Z,18
2022-07-31T19:33:05.172Z,10
2022-07-31T19:38:09.332Z,11
2022-07-31T19:43:13.511Z,14
2022-07-31T19:48:17.898Z,3
2022-07-31T19:53:21.800Z,1
2022-07-31T19:58:26.584Z,0
2022-07-31T20:03:30.295Z,0
2022-07-31T20:08:34.303Z,0
2022-07-31T20:13:38.488Z,0
2022-07-31T20:18:42.634Z,0
2022-07-31T20:23:48.969Z,0
2022-07-31T20:28:50.932Z,0
2022-07-31T20:33:56.707Z,0
2022-07-31T20:38:59.288Z,0
2022-07-31T20:44:03.417Z,0
2022-07-31T20:49:07.646Z,0
2022-07-31T20:54:11.721Z,0
2022-07-31T20:59:16.066Z,0
2022-07-31T21:04:20.013Z,0
2022-07-31T21:09:24.204Z,0
2022-07-31T21:14:28.512Z,0
2022-07-31T21:19:30.629Z,0
2022-07-31T21:24:34.768Z,0
2022-07-31T21:29:37.058Z,0
2022-07-31T21:34:41.220Z,0
2022-07-31T21:39:45.410Z,0
2022-07-31T21:44:49.526Z,0
2022-07-31T21:49:58.163Z,0
2022-07-31T21:54:57.867Z,0
2022-07-31T22:00:02.067Z,0
2022-07-31T22:05:06.189Z,0
2022-07-31T22:10:10.354Z,0
2022-07-31T22:15:15.640Z,0
2022-07-31T22:20:18.703Z,0
2022-07-31T22:25:22.816Z,0
2022-07-31T22:30:26.984Z,0
2022-07-31T22:35:31.135Z,0
2022-07-31T22:40:35.333Z,0
2022-07-31T22:45:39.451Z,0
2022-07-31T22:50:43.581Z,0
2022-07-31T22:55:47.972Z,0
2022-07-31T23:00:52.145Z,0
2022-07-31T23:06:03.673Z,0
2022-07-31T23:11:00.283Z,0
2022-07-31T23:16:02.523Z,0
2022-07-31T23:21:08.366Z,0
2022-07-31T23:26:09.193Z,0
2022-07-31T23:31:13.105Z,0
2022-07-31T23:36:15.404Z,0
2022-07-31T23:41:19.521Z,0
2022-07-31T23:46:26.590Z,0
2022-07-31T23:51:27.872Z,0
2022-07-31T23:56:31.987Z,0
